sensor_id;sensor_type;location;lat;lon;timestamp;temperature;humidity
22073;DHT22;11202;50.916;4.698;2022-11-20T00:01:25;4.30;99.90
22073;DHT22;11202;50.916;4.698;2022-11-20T00:07:16;4.20;99.90
22073;DHT22;11202;50.916;4.698;2022-11-20T00:09:41;4.40;99.90
22073;DHT22;11202;50.916;4.698;2022-11-20T00:12:07;4.70;99.90
22073;DHT22;11202;50.916;4.698;2022-11-20T00:14:32;4.90;99.90
22073;DHT22;11202;50.916;4.698;2022-11-20T00:17:20;4.80;99.90
22073;DHT22;11202;50.916;4.698;2022-11-20T00:23:01;4.50;99.90
22073;DHT22;11202;50.916;4.698;2022-11-20T00:25:29;4.30;99.90
22073;DHT22;11202;50.916;4.698;2022-11-20T00:27:54;4.40;99.90
22073;DHT22;11202;50.916;4.698;2022-11-20T00:33:58;4.40;99.90
22073;DHT22;11202;50.916;4.698;2022-11-20T00:39:48;4.60;99.90
22073;DHT22;11202;50.916;4.698;2022-11-20T00:52:34;5.00;99.90
22073;DHT22;11202;50.916;4.698;2022-11-20T01:05:12;5.10;99.90
22073;DHT22;11202;50.916;4.698;2022-11-20T01:07:50;5.20;99.90
22073;DHT22;11202;50.916;4.698;2022-11-20T08:14:52;5.90;99.90
22073;DHT22;11202;50.916;4.698;2022-11-20T08:17:22;5.80;99.90
22073;DHT22;11202;50.916;4.698;2022-11-20T08:23:14;5.90;99.90
22073;DHT22;11202;50.916;4.698;2022-11-20T08:25:39;6.10;99.90
22073;DHT22;11202;50.916;4.698;2022-11-20T08:28:07;6.20;99.90
22073;DHT22;11202;50.916;4.698;2022-11-20T08:30:34;6.20;99.90
22073;DHT22;11202;50.916;4.698;2022-11-20T08:33:04;6.40;99.90
22073;DHT22;11202;50.916;4.698;2022-11-20T08:35:33;6.60;99.90
22073;DHT22;11202;50.916;4.698;2022-11-20T08:38:00;6.50;99.90
22073;DHT22;11202;50.916;4.698;2022-11-20T08:40:26;6.70;99.90
22073;DHT22;11202;50.916;4.698;2022-11-20T08:42:51;6.60;99.90
22073;DHT22;11202;50.916;4.698;2022-11-20T08:45:18;6.40;99.90
22073;DHT22;11202;50.916;4.698;2022-11-20T08:47:44;6.20;99.90
22073;DHT22;11202;50.916;4.698;2022-11-20T08:50:11;6.20;99.90
22073;DHT22;11202;50.916;4.698;2022-11-20T08:52:39;6.50;99.90
22073;DHT22;11202;50.916;4.698;2022-11-20T08:55:06;6.80;99.90
22073;DHT22;11202;50.916;4.698;2022-11-20T08:57:35;6.90;99.90
22073;DHT22;11202;50.916;4.698;2022-11-20T09:00:06;6.90;99.90
22073;DHT22;11202;50.916;4.698;2022-11-20T09:02:32;6.90;99.90
22073;DHT22;11202;50.916;4.698;2022-11-20T09:05:00;6.90;99.90
22073;DHT22;11202;50.916;4.698;2022-11-20T09:07:28;6.90;99.90
22073;DHT22;11202;50.916;4.698;2022-11-20T09:09:55;6.90;99.90
22073;DHT22;11202;50.916;4.698;2022-11-20T09:12:20;7.00;99.90
22073;DHT22;11202;50.916;4.698;2022-11-20T09:14:48;7.00;99.90
22073;DHT22;11202;50.916;4.698;2022-11-20T09:17:14;7.10;99.90
22073;DHT22;11202;50.916;4.698;2022-11-20T09:19:42;7.20;99.90
22073;DHT22;11202;50.916;4.698;2022-11-20T09:22:08;7.40;99.90
22073;DHT22;11202;50.916;4.698;2022-11-20T09:24:34;7.50;99.90
22073;DHT22;11202;50.916;4.698;2022-11-20T09:27:04;7.50;99.90
22073;DHT22;11202;50.916;4.698;2022-11-20T09:29:30;7.30;99.90
22073;DHT22;11202;50.916;4.698;2022-11-20T09:31:56;7.10;99.90
22073;DHT22;11202;50.916;4.698;2022-11-20T09:34:24;7.30;99.90
22073;DHT22;11202;50.916;4.698;2022-11-20T09:36:50;7.50;99.90
22073;DHT22;11202;50.916;4.698;2022-11-20T09:39:15;7.60;99.90
22073;DHT22;11202;50.916;4.698;2022-11-20T09:42:04;7.60;99.90
22073;DHT22;11202;50.916;4.698;2022-11-20T09:47:08;7.70;99.90
22073;DHT22;11202;50.916;4.698;2022-11-20T09:54:47;7.40;99.90
22073;DHT22;11202;50.916;4.698;2022-11-20T09:57:27;7.40;99.90
22073;DHT22;11202;50.916;4.698;2022-11-20T10:00:00;7.60;99.90
22073;DHT22;11202;50.916;4.698;2022-11-20T10:07:41;7.90;99.90
22073;DHT22;11202;50.916;4.698;2022-11-20T10:10:16;7.90;99.90
22073;DHT22;11202;50.916;4.698;2022-11-20T10:18:36;8.30;99.90
22073;DHT22;11202;50.916;4.698;2022-11-20T10:24:56;8.40;99.90
22073;DHT22;11202;50.916;4.698;2022-11-20T10:27:15;8.60;99.90
22073;DHT22;11202;50.916;4.698;2022-11-20T10:29:49;8.70;99.90
22073;DHT22;11202;50.916;4.698;2022-11-20T10:32:24;8.70;99.90
22073;DHT22;11202;50.916;4.698;2022-11-20T10:35:03;8.90;99.90
22073;DHT22;11202;50.916;4.698;2022-11-20T10:37:35;9.00;99.90
22073;DHT22;11202;50.916;4.698;2022-11-20T10:40:29;9.20;99.90
22073;DHT22;11202;50.916;4.698;2022-11-20T10:46:06;9.50;99.90
22073;DHT22;11202;50.916;4.698;2022-11-20T10:48:34;9.70;99.90
22073;DHT22;11202;50.916;4.698;2022-11-20T10:51:31;9.70;99.90
22073;DHT22;11202;50.916;4.698;2022-11-20T10:54:44;9.60;99.90
22073;DHT22;11202;50.916;4.698;2022-11-20T11:00:06;9.70;99.90
22073;DHT22;11202;50.916;4.698;2022-11-20T11:02:51;9.70;99.90
22073;DHT22;11202;50.916;4.698;2022-11-20T11:07:48;9.70;99.90
22073;DHT22;11202;50.916;4.698;2022-11-20T11:10:24;9.80;99.90
22073;DHT22;11202;50.916;4.698;2022-11-20T11:12:51;9.70;99.90
22073;DHT22;11202;50.916;4.698;2022-11-20T11:15:40;9.70;99.90
22073;DHT22;11202;50.916;4.698;2022-11-20T11:18:11;9.70;99.90
22073;DHT22;11202;50.916;4.698;2022-11-20T11:20:37;9.80;99.90
22073;DHT22;11202;50.916;4.698;2022-11-20T11:23:05;9.80;99.90
22073;DHT22;11202;50.916;4.698;2022-11-20T11:25:37;9.80;99.90
22073;DHT22;11202;50.916;4.698;2022-11-20T11:28:18;9.70;99.90
22073;DHT22;11202;50.916;4.698;2022-11-20T11:30:45;9.60;99.90
22073;DHT22;11202;50.916;4.698;2022-11-20T11:33:18;9.80;99.90
22073;DHT22;11202;50.916;4.698;2022-11-20T11:35:46;9.80;99.90
22073;DHT22;11202;50.916;4.698;2022-11-20T11:38:16;9.70;99.90
22073;DHT22;11202;50.916;4.698;2022-11-20T11:40:43;9.60;99.90
22073;DHT22;11202;50.916;4.698;2022-11-20T11:43:22;9.70;99.90
22073;DHT22;11202;50.916;4.698;2022-11-20T11:46:28;9.90;99.90
22073;DHT22;11202;50.916;4.698;2022-11-20T11:54:31;9.80;99.90
22073;DHT22;11202;50.916;4.698;2022-11-20T11:57:01;9.70;99.90
22073;DHT22;11202;50.916;4.698;2022-11-20T12:02:35;9.70;99.90
22073;DHT22;11202;50.916;4.698;2022-11-20T12:10:02;9.70;99.90
22073;DHT22;11202;50.916;4.698;2022-11-20T12:12:36;9.70;99.90
22073;DHT22;11202;50.916;4.698;2022-11-20T12:15:03;9.80;99.90
22073;DHT22;11202;50.916;4.698;2022-11-20T12:17:29;9.80;99.90
22073;DHT22;11202;50.916;4.698;2022-11-20T12:19:58;9.80;99.90
22073;DHT22;11202;50.916;4.698;2022-11-20T12:22:35;9.80;99.90
22073;DHT22;11202;50.916;4.698;2022-11-20T12:27:57;9.40;99.90
22073;DHT22;11202;50.916;4.698;2022-11-20T12:30:25;9.30;99.90
22073;DHT22;11202;50.916;4.698;2022-11-20T12:36:01;9.10;99.90
22073;DHT22;11202;50.916;4.698;2022-11-20T12:59:33;8.60;99.90
22073;DHT22;11202;50.916;4.698;2022-11-20T13:02:23;8.60;99.90
22073;DHT22;11202;50.916;4.698;2022-11-20T13:07:32;8.40;99.90
22073;DHT22;11202;50.916;4.698;2022-11-20T13:09:59;8.50;99.90
22073;DHT22;11202;50.916;4.698;2022-11-20T13:15:31;8.40;99.90
22073;DHT22;11202;50.916;4.698;2022-11-20T13:18:04;8.40;99.90
22073;DHT22;11202;50.916;4.698;2022-11-20T13:20:31;8.50;99.90
22073;DHT22;11202;50.916;4.698;2022-11-20T13:22:58;8.40;99.90
22073;DHT22;11202;50.916;4.698;2022-11-20T13:25:34;8.40;99.90
22073;DHT22;11202;50.916;4.698;2022-11-20T13:30:48;8.40;99.90
22073;DHT22;11202;50.916;4.698;2022-11-20T13:38:25;8.40;99.90
22073;DHT22;11202;50.916;4.698;2022-11-20T13:40:52;8.40;99.90
22073;DHT22;11202;50.916;4.698;2022-11-20T13:43:22;8.40;99.90
22073;DHT22;11202;50.916;4.698;2022-11-20T13:45:55;8.40;99.90
22073;DHT22;11202;50.916;4.698;2022-11-20T13:48:24;8.40;99.90
22073;DHT22;11202;50.916;4.698;2022-11-20T13:59:02;8.20;99.90
22073;DHT22;11202;50.916;4.698;2022-11-20T14:01:31;8.20;99.90
22073;DHT22;11202;50.916;4.698;2022-11-20T14:03:58;8.20;99.90
22073;DHT22;11202;50.916;4.698;2022-11-20T14:06:29;8.20;99.90
22073;DHT22;11202;50.916;4.698;2022-11-20T14:08:56;8.20;99.90
22073;DHT22;11202;50.916;4.698;2022-11-20T14:11:26;8.20;99.90
22073;DHT22;11202;50.916;4.698;2022-11-20T14:16:26;8.30;99.90
22073;DHT22;11202;50.916;4.698;2022-11-20T14:18:53;8.40;99.90
22073;DHT22;11202;50.916;4.698;2022-11-20T14:21:28;8.40;99.90
22073;DHT22;11202;50.916;4.698;2022-11-20T14:24:06;8.40;99.90
22073;DHT22;11202;50.916;4.698;2022-11-20T14:26:32;8.30;99.90
22073;DHT22;11202;50.916;4.698;2022-11-20T14:28:58;8.30;99.90
22073;DHT22;11202;50.916;4.698;2022-11-20T14:31:26;8.20;99.90
22073;DHT22;11202;50.916;4.698;2022-11-20T14:33:55;8.20;99.90
22073;DHT22;11202;50.916;4.698;2022-11-20T14:36:24;8.20;99.90
22073;DHT22;11202;50.916;4.698;2022-11-20T14:38:50;8.30;99.90
22073;DHT22;11202;50.916;4.698;2022-11-20T14:41:23;8.20;99.90
22073;DHT22;11202;50.916;4.698;2022-11-20T14:43:59;8.20;99.90
22073;DHT22;11202;50.916;4.698;2022-11-20T14:46:30;8.20;99.90
22073;DHT22;11202;50.916;4.698;2022-11-20T14:49:00;8.20;99.90
22073;DHT22;11202;50.916;4.698;2022-11-20T14:51:37;8.20;99.90
22073;DHT22;11202;50.916;4.698;2022-11-20T14:54:17;8.20;99.90
22073;DHT22;11202;50.916;4.698;2022-11-20T14:57:01;8.20;99.90
22073;DHT22;11202;50.916;4.698;2022-11-20T14:59:32;8.20;99.90
22073;DHT22;11202;50.916;4.698;2022-11-20T15:02:08;8.20;99.90
22073;DHT22;11202;50.916;4.698;2022-11-20T15:04:48;8.20;99.90
22073;DHT22;11202;50.916;4.698;2022-11-20T15:07:24;8.20;99.90
22073;DHT22;11202;50.916;4.698;2022-11-20T15:10:11;8.20;99.90
22073;DHT22;11202;50.916;4.698;2022-11-20T15:12:40;8.20;99.90
22073;DHT22;11202;50.916;4.698;2022-11-20T15:15:12;8.30;99.90
22073;DHT22;11202;50.916;4.698;2022-11-20T15:17:40;8.20;99.90
22073;DHT22;11202;50.916;4.698;2022-11-20T15:20:13;8.20;99.90
22073;DHT22;11202;50.916;4.698;2022-11-20T15:22:39;8.20;99.90
22073;DHT22;11202;50.916;4.698;2022-11-20T15:25:12;8.20;99.90
22073;DHT22;11202;50.916;4.698;2022-11-20T15:27:38;8.20;99.90
22073;DHT22;11202;50.916;4.698;2022-11-20T15:30:17;8.20;99.90
22073;DHT22;11202;50.916;4.698;2022-11-20T15:32:44;8.30;99.90
22073;DHT22;11202;50.916;4.698;2022-11-20T15:35:11;8.30;99.90
22073;DHT22;11202;50.916;4.698;2022-11-20T15:37:38;8.30;99.90
22073;DHT22;11202;50.916;4.698;2022-11-20T15:40:04;8.40;99.90
22073;DHT22;11202;50.916;4.698;2022-11-20T15:42:30;8.40;99.90
22073;DHT22;11202;50.916;4.698;2022-11-20T15:44:56;8.50;99.90
22073;DHT22;11202;50.916;4.698;2022-11-20T15:47:29;8.50;99.90
22073;DHT22;11202;50.916;4.698;2022-11-20T15:49:55;8.60;99.90
22073;DHT22;11202;50.916;4.698;2022-11-20T15:52:23;8.60;99.90
22073;DHT22;11202;50.916;4.698;2022-11-20T15:54:49;8.70;99.90
22073;DHT22;11202;50.916;4.698;2022-11-20T15:57:17;8.70;99.90
22073;DHT22;11202;50.916;4.698;2022-11-20T15:59:43;8.70;99.90
22073;DHT22;11202;50.916;4.698;2022-11-20T16:02:11;8.70;99.90
22073;DHT22;11202;50.916;4.698;2022-11-20T16:04:37;8.70;99.90
22073;DHT22;11202;50.916;4.698;2022-11-20T16:07:06;8.70;99.90
22073;DHT22;11202;50.916;4.698;2022-11-20T16:09:35;8.80;99.90
22073;DHT22;11202;50.916;4.698;2022-11-20T16:12:03;8.70;99.90
22073;DHT22;11202;50.916;4.698;2022-11-20T16:14:29;8.60;99.90
22073;DHT22;11202;50.916;4.698;2022-11-20T16:17:13;8.60;99.90
22073;DHT22;11202;50.916;4.698;2022-11-20T16:19:42;8.60;99.90
22073;DHT22;11202;50.916;4.698;2022-11-20T16:22:10;8.50;99.90
22073;DHT22;11202;50.916;4.698;2022-11-20T16:24:38;8.60;99.90
22073;DHT22;11202;50.916;4.698;2022-11-20T16:27:04;8.50;99.90
22073;DHT22;11202;50.916;4.698;2022-11-20T16:29:30;8.50;99.90
22073;DHT22;11202;50.916;4.698;2022-11-20T16:31:56;8.60;99.90
22073;DHT22;11202;50.916;4.698;2022-11-20T16:34:22;8.60;99.90
22073;DHT22;11202;50.916;4.698;2022-11-20T16:36:48;8.60;99.90
22073;DHT22;11202;50.916;4.698;2022-11-20T16:39:14;8.60;99.90
22073;DHT22;11202;50.916;4.698;2022-11-20T16:41:40;8.60;99.90
22073;DHT22;11202;50.916;4.698;2022-11-20T16:44:10;8.60;99.90
22073;DHT22;11202;50.916;4.698;2022-11-20T16:46:36;8.60;99.90
22073;DHT22;11202;50.916;4.698;2022-11-20T16:49:05;8.60;99.90
22073;DHT22;11202;50.916;4.698;2022-11-20T16:51:33;8.60;99.90
22073;DHT22;11202;50.916;4.698;2022-11-20T16:54:04;8.60;99.90
22073;DHT22;11202;50.916;4.698;2022-11-20T16:56:31;8.70;99.90
22073;DHT22;11202;50.916;4.698;2022-11-20T16:58:58;8.80;99.90
22073;DHT22;11202;50.916;4.698;2022-11-20T17:01:25;8.90;99.90
22073;DHT22;11202;50.916;4.698;2022-11-20T17:04:02;8.90;99.90
22073;DHT22;11202;50.916;4.698;2022-11-20T17:06:36;8.90;99.90
22073;DHT22;11202;50.916;4.698;2022-11-20T17:09:03;8.90;99.90
22073;DHT22;11202;50.916;4.698;2022-11-20T17:11:29;8.90;99.90
22073;DHT22;11202;50.916;4.698;2022-11-20T17:13:56;8.90;99.90
22073;DHT22;11202;50.916;4.698;2022-11-20T17:16:25;8.90;99.90
22073;DHT22;11202;50.916;4.698;2022-11-20T17:18:53;8.90;99.90
22073;DHT22;11202;50.916;4.698;2022-11-20T17:21:22;8.90;99.90
22073;DHT22;11202;50.916;4.698;2022-11-20T17:23:48;9.00;99.90
22073;DHT22;11202;50.916;4.698;2022-11-20T17:26:22;9.00;99.90
22073;DHT22;11202;50.916;4.698;2022-11-20T17:28:56;9.00;99.90
22073;DHT22;11202;50.916;4.698;2022-11-20T17:31:23;9.00;99.90
22073;DHT22;11202;50.916;4.698;2022-11-20T17:33:51;8.90;99.90
22073;DHT22;11202;50.916;4.698;2022-11-20T17:36:18;8.80;99.90
22073;DHT22;11202;50.916;4.698;2022-11-20T17:38:44;8.80;99.90
22073;DHT22;11202;50.916;4.698;2022-11-20T17:41:18;8.60;99.90
22073;DHT22;11202;50.916;4.698;2022-11-20T17:43:47;8.50;99.90
22073;DHT22;11202;50.916;4.698;2022-11-20T17:46:18;8.50;99.90
22073;DHT22;11202;50.916;4.698;2022-11-20T17:48:45;8.40;99.90
22073;DHT22;11202;50.916;4.698;2022-11-20T17:51:17;8.30;99.90
22073;DHT22;11202;50.916;4.698;2022-11-20T17:53:45;8.20;99.90
22073;DHT22;11202;50.916;4.698;2022-11-20T17:56:12;8.10;99.90
22073;DHT22;11202;50.916;4.698;2022-11-20T17:58:56;8.00;99.90
22073;DHT22;11202;50.916;4.698;2022-11-20T18:01:22;8.00;99.90
22073;DHT22;11202;50.916;4.698;2022-11-20T18:03:49;8.00;99.90
22073;DHT22;11202;50.916;4.698;2022-11-20T18:06:20;8.00;99.90
22073;DHT22;11202;50.916;4.698;2022-11-20T18:08:47;8.00;99.90
22073;DHT22;11202;50.916;4.698;2022-11-20T18:11:18;8.00;99.90
22073;DHT22;11202;50.916;4.698;2022-11-20T18:13:46;8.10;99.90
22073;DHT22;11202;50.916;4.698;2022-11-20T18:16:36;8.10;99.90
22073;DHT22;11202;50.916;4.698;2022-11-20T18:19:02;8.10;99.90
22073;DHT22;11202;50.916;4.698;2022-11-20T18:21:29;8.10;99.90
22073;DHT22;11202;50.916;4.698;2022-11-20T18:23:58;8.20;99.90
22073;DHT22;11202;50.916;4.698;2022-11-20T18:26:24;8.10;99.90
22073;DHT22;11202;50.916;4.698;2022-11-20T18:28:50;8.10;99.90
22073;DHT22;11202;50.916;4.698;2022-11-20T18:31:16;8.10;99.90
22073;DHT22;11202;50.916;4.698;2022-11-20T18:33:41;8.20;99.90
22073;DHT22;11202;50.916;4.698;2022-11-20T18:36:23;8.20;99.90
22073;DHT22;11202;50.916;4.698;2022-11-20T18:38:50;8.20;99.90
22073;DHT22;11202;50.916;4.698;2022-11-20T18:41:20;8.20;99.90
22073;DHT22;11202;50.916;4.698;2022-11-20T18:44:10;8.30;99.90
22073;DHT22;11202;50.916;4.698;2022-11-20T18:46:54;8.30;99.90
22073;DHT22;11202;50.916;4.698;2022-11-20T18:49:20;8.40;99.90
22073;DHT22;11202;50.916;4.698;2022-11-20T18:51:48;8.30;99.90
22073;DHT22;11202;50.916;4.698;2022-11-20T18:54:14;8.40;99.90
22073;DHT22;11202;50.916;4.698;2022-11-20T18:56:39;8.40;99.90
22073;DHT22;11202;50.916;4.698;2022-11-20T18:59:07;8.40;99.90
22073;DHT22;11202;50.916;4.698;2022-11-20T19:01:33;8.30;99.90
22073;DHT22;11202;50.916;4.698;2022-11-20T19:03:59;8.30;99.90
22073;DHT22;11202;50.916;4.698;2022-11-20T19:06:25;8.20;99.90
22073;DHT22;11202;50.916;4.698;2022-11-20T19:08:52;8.10;99.90
22073;DHT22;11202;50.916;4.698;2022-11-20T19:11:18;8.10;99.90
22073;DHT22;11202;50.916;4.698;2022-11-20T19:13:44;8.00;99.90
22073;DHT22;11202;50.916;4.698;2022-11-20T19:16:17;8.00;99.90
22073;DHT22;11202;50.916;4.698;2022-11-20T19:18:46;8.10;99.90
22073;DHT22;11202;50.916;4.698;2022-11-20T19:21:23;8.10;99.90
22073;DHT22;11202;50.916;4.698;2022-11-20T19:23:50;8.10;99.90
22073;DHT22;11202;50.916;4.698;2022-11-20T19:26:17;8.10;99.90
22073;DHT22;11202;50.916;4.698;2022-11-20T19:28:43;8.20;99.90
22073;DHT22;11202;50.916;4.698;2022-11-20T19:31:14;8.30;99.90
22073;DHT22;11202;50.916;4.698;2022-11-20T19:33:41;8.40;99.90
22073;DHT22;11202;50.916;4.698;2022-11-20T19:36:17;8.50;99.90
22073;DHT22;11202;50.916;4.698;2022-11-20T19:38:46;8.50;99.90
22073;DHT22;11202;50.916;4.698;2022-11-20T19:41:14;8.40;99.90
22073;DHT22;11202;50.916;4.698;2022-11-20T19:43:40;8.40;99.90
22073;DHT22;11202;50.916;4.698;2022-11-20T19:46:08;8.40;99.90
22073;DHT22;11202;50.916;4.698;2022-11-20T19:48:35;8.30;99.90
22073;DHT22;11202;50.916;4.698;2022-11-20T19:51:08;8.30;99.90
22073;DHT22;11202;50.916;4.698;2022-11-20T19:53:34;8.30;99.90
22073;DHT22;11202;50.916;4.698;2022-11-20T19:56:00;8.30;99.90
22073;DHT22;11202;50.916;4.698;2022-11-20T19:58:28;8.30;99.90
22073;DHT22;11202;50.916;4.698;2022-11-20T20:00:54;8.20;99.90
22073;DHT22;11202;50.916;4.698;2022-11-20T20:03:20;8.30;99.90
22073;DHT22;11202;50.916;4.698;2022-11-20T20:05:46;8.20;99.90
22073;DHT22;11202;50.916;4.698;2022-11-20T20:08:12;8.20;99.90
22073;DHT22;11202;50.916;4.698;2022-11-20T20:10:40;8.20;99.90
22073;DHT22;11202;50.916;4.698;2022-11-20T20:13:06;8.30;99.90
22073;DHT22;11202;50.916;4.698;2022-11-20T20:15:38;8.30;99.90
22073;DHT22;11202;50.916;4.698;2022-11-20T20:18:05;8.30;99.90
22073;DHT22;11202;50.916;4.698;2022-11-20T20:20:33;8.20;99.90
22073;DHT22;11202;50.916;4.698;2022-11-20T20:22:58;8.20;99.90
22073;DHT22;11202;50.916;4.698;2022-11-20T20:25:24;8.20;99.90
22073;DHT22;11202;50.916;4.698;2022-11-20T20:27:50;8.30;99.90
22073;DHT22;11202;50.916;4.698;2022-11-20T20:30:15;8.20;99.90
22073;DHT22;11202;50.916;4.698;2022-11-20T20:32:43;8.20;99.90
22073;DHT22;11202;50.916;4.698;2022-11-20T20:35:09;8.20;99.90
22073;DHT22;11202;50.916;4.698;2022-11-20T20:37:35;8.30;99.90
22073;DHT22;11202;50.916;4.698;2022-11-20T20:40:00;8.40;99.90
22073;DHT22;11202;50.916;4.698;2022-11-20T20:42:28;8.40;99.90
22073;DHT22;11202;50.916;4.698;2022-11-20T20:44:53;8.40;99.90
22073;DHT22;11202;50.916;4.698;2022-11-20T20:47:32;8.40;99.90
22073;DHT22;11202;50.916;4.698;2022-11-20T20:50:02;8.40;99.90
22073;DHT22;11202;50.916;4.698;2022-11-20T20:52:27;8.40;99.90
22073;DHT22;11202;50.916;4.698;2022-11-20T20:54:53;8.30;99.90
22073;DHT22;11202;50.916;4.698;2022-11-20T20:57:20;8.20;99.90
22073;DHT22;11202;50.916;4.698;2022-11-20T20:59:47;8.20;99.90
22073;DHT22;11202;50.916;4.698;2022-11-20T21:02:13;8.10;99.90
22073;DHT22;11202;50.916;4.698;2022-11-20T21:04:41;8.10;99.90
22073;DHT22;11202;50.916;4.698;2022-11-20T21:07:07;8.00;99.90
22073;DHT22;11202;50.916;4.698;2022-11-20T21:09:33;8.00;99.90
22073;DHT22;11202;50.916;4.698;2022-11-20T21:11:58;8.00;99.90
22073;DHT22;11202;50.916;4.698;2022-11-20T21:14:24;8.00;99.90
22073;DHT22;11202;50.916;4.698;2022-11-20T21:16:50;8.00;99.90
22073;DHT22;11202;50.916;4.698;2022-11-20T21:19:21;7.90;99.90
22073;DHT22;11202;50.916;4.698;2022-11-20T21:21:47;7.80;99.90
22073;DHT22;11202;50.916;4.698;2022-11-20T21:26:56;7.90;99.90
22073;DHT22;11202;50.916;4.698;2022-11-20T21:29:23;7.90;99.90
22073;DHT22;11202;50.916;4.698;2022-11-20T21:31:52;8.00;99.90
22073;DHT22;11202;50.916;4.698;2022-11-20T21:34:21;8.00;99.90
22073;DHT22;11202;50.916;4.698;2022-11-20T21:36:47;7.90;99.90
22073;DHT22;11202;50.916;4.698;2022-11-20T21:39:13;7.80;99.90
22073;DHT22;11202;50.916;4.698;2022-11-20T21:41:40;7.80;99.90
22073;DHT22;11202;50.916;4.698;2022-11-20T21:44:08;7.70;99.90
22073;DHT22;11202;50.916;4.698;2022-11-20T21:46:38;7.70;99.90
22073;DHT22;11202;50.916;4.698;2022-11-20T21:49:04;7.70;99.90
22073;DHT22;11202;50.916;4.698;2022-11-20T21:51:29;7.70;99.90
22073;DHT22;11202;50.916;4.698;2022-11-20T21:53:58;7.60;99.90
22073;DHT22;11202;50.916;4.698;2022-11-20T21:56:27;7.60;99.90
22073;DHT22;11202;50.916;4.698;2022-11-20T21:58:55;7.50;99.90
22073;DHT22;11202;50.916;4.698;2022-11-20T22:01:26;7.50;99.90
22073;DHT22;11202;50.916;4.698;2022-11-20T22:03:57;7.50;99.90
22073;DHT22;11202;50.916;4.698;2022-11-20T22:06:31;7.50;99.90
22073;DHT22;11202;50.916;4.698;2022-11-20T22:08:57;7.50;99.90
22073;DHT22;11202;50.916;4.698;2022-11-20T22:11:23;7.40;99.90
22073;DHT22;11202;50.916;4.698;2022-11-20T22:13:49;7.40;99.90
22073;DHT22;11202;50.916;4.698;2022-11-20T22:16:34;7.40;99.90
22073;DHT22;11202;50.916;4.698;2022-11-20T22:19:01;7.40;99.90
22073;DHT22;11202;50.916;4.698;2022-11-20T22:21:28;7.40;99.90
22073;DHT22;11202;50.916;4.698;2022-11-20T22:23:56;7.40;99.90
22073;DHT22;11202;50.916;4.698;2022-11-20T22:26:25;7.30;99.90
22073;DHT22;11202;50.916;4.698;2022-11-20T22:28:53;7.40;99.90
22073;DHT22;11202;50.916;4.698;2022-11-20T22:31:24;7.30;99.90
22073;DHT22;11202;50.916;4.698;2022-11-20T22:33:53;7.30;99.90
22073;DHT22;11202;50.916;4.698;2022-11-20T22:36:23;7.20;99.90
22073;DHT22;11202;50.916;4.698;2022-11-20T22:38:49;7.20;99.90
22073;DHT22;11202;50.916;4.698;2022-11-20T22:41:20;7.20;99.90
22073;DHT22;11202;50.916;4.698;2022-11-20T22:43:46;7.20;99.90
22073;DHT22;11202;50.916;4.698;2022-11-20T22:46:16;7.20;99.90
22073;DHT22;11202;50.916;4.698;2022-11-20T22:48:48;7.20;99.90
22073;DHT22;11202;50.916;4.698;2022-11-20T22:51:14;7.10;99.90
22073;DHT22;11202;50.916;4.698;2022-11-20T22:53:42;7.10;99.90
22073;DHT22;11202;50.916;4.698;2022-11-20T22:56:09;7.10;99.90
22073;DHT22;11202;50.916;4.698;2022-11-20T22:58:37;7.10;99.90
22073;DHT22;11202;50.916;4.698;2022-11-20T23:03:36;7.10;99.90
22073;DHT22;11202;50.916;4.698;2022-11-20T23:06:01;7.10;99.90
22073;DHT22;11202;50.916;4.698;2022-11-20T23:08:27;7.10;99.90
22073;DHT22;11202;50.916;4.698;2022-11-20T23:11:04;7.10;99.90
22073;DHT22;11202;50.916;4.698;2022-11-20T23:13:33;7.10;99.90
22073;DHT22;11202;50.916;4.698;2022-11-20T23:16:02;7.10;99.90
22073;DHT22;11202;50.916;4.698;2022-11-20T23:18:31;7.10;99.90
22073;DHT22;11202;50.916;4.698;2022-11-20T23:21:20;7.10;99.90
22073;DHT22;11202;50.916;4.698;2022-11-20T23:23:50;7.20;99.90
22073;DHT22;11202;50.916;4.698;2022-11-20T23:26:21;7.10;99.90
22073;DHT22;11202;50.916;4.698;2022-11-20T23:28:51;7.10;99.90
22073;DHT22;11202;50.916;4.698;2022-11-20T23:31:17;7.10;99.90
22073;DHT22;11202;50.916;4.698;2022-11-20T23:33:43;7.10;99.90
22073;DHT22;11202;50.916;4.698;2022-11-20T23:36:12;7.00;99.90
22073;DHT22;11202;50.916;4.698;2022-11-20T23:38:38;7.10;99.90
22073;DHT22;11202;50.916;4.698;2022-11-20T23:41:04;7.20;99.90
22073;DHT22;11202;50.916;4.698;2022-11-20T23:43:30;7.30;99.90
22073;DHT22;11202;50.916;4.698;2022-11-20T23:46:00;7.30;99.90
22073;DHT22;11202;50.916;4.698;2022-11-20T23:48:30;7.40;99.90
22073;DHT22;11202;50.916;4.698;2022-11-20T23:50:56;7.40;99.90
22073;DHT22;11202;50.916;4.698;2022-11-20T23:53:22;7.40;99.90
22073;DHT22;11202;50.916;4.698;2022-11-20T23:55:50;7.40;99.90
22073;DHT22;11202;50.916;4.698;2022-11-20T23:58:17;7.50;99.90
